Time;durP1;ratioP1;P1;durP2;ratioP2;P2;SDS_P1;SDS_P2;PMS_P1;PMS_P2;Temp;Humidity;BMP_temperature;BMP_pressure;BME280_temperature;BME280_humidity;BME280_pressure;Samples;Min_cycle;Max_cycle;Signal;HPM_P1;HPM_P2
2023/09/05 00:01:56;;;;;;;8.35;4.18;;;;;;;;;;5073522;28;20213;-61
2023/09/05 00:04:24;;;;;;;7.55;4.60;;;;;;;;;;5071991;28;20690;-61
2023/09/05 00:06:52;;;;;;;7.00;3.97;;;;;;;;;;5073156;28;20660;-61
2023/09/05 00:09:19;;;;;;;7.85;4.13;;;;;;;;;;5073455;28;20257;-61
2023/09/05 00:11:46;;;;;;;5.90;4.00;;;;;;;;;;5073363;28;20215;-62
2023/09/05 00:14:15;;;;;;;5.93;4.10;;;;;;;;;;5073125;28;20679;-61
2023/09/05 00:16:43;;;;;;;6.63;3.67;;;;;;;;;;5073055;28;20253;-61
2023/09/05 00:19:10;;;;;;;5.88;3.78;;;;;;;;;;5074143;28;20223;-61
2023/09/05 00:21:37;;;;;;;5.53;3.53;;;;;;;;;;5077420;28;20204;-61
2023/09/05 00:24:35;;;;;;;5.90;3.38;;;;;;;;;;5077158;28;20290;-61
2023/09/05 00:27:06;;;;;;;6.18;3.80;;;;;;;;;;5077197;28;20211;-61
2023/09/05 00:29:33;;;;;;;5.13;3.50;;;;;;;;;;5076978;28;20667;-61
2023/09/05 00:32:00;;;;;;;5.40;3.42;;;;;;;;;;5076905;28;20607;-60
2023/09/05 00:34:33;;;;;;;4.55;3.30;;;;;;;;;;5076810;28;20603;-61
2023/09/05 00:37:03;;;;;;;4.72;2.85;;;;;;;;;;5075746;28;20214;-61
2023/09/05 00:39:30;;;;;;;5.10;3.15;;;;;;;;;;5075479;28;20306;-61
2023/09/05 00:41:58;;;;;;;5.15;3.47;;;;;;;;;;5076584;28;20204;-61
2023/09/05 00:44:25;;;;;;;4.35;3.05;;;;;;;;;;5076566;28;20199;-61
2023/09/05 00:46:54;;;;;;;5.88;3.50;;;;;;;;;;5076904;28;20211;-60
2023/09/05 00:49:27;;;;;;;6.30;3.85;;;;;;;;;;5076762;28;20207;-61
2023/09/05 00:51:57;;;;;;;8.60;4.13;;;;;;;;;;5075602;28;20566;-60
2023/09/05 00:54:24;;;;;;;9.45;4.30;;;;;;;;;;5075480;28;20282;-61
2023/09/05 00:56:52;;;;;;;5.30;4.00;;;;;;;;;;5075313;28;20221;-61
2023/09/05 00:59:20;;;;;;;8.00;4.60;;;;;;;;;;5076588;28;20219;-60
2023/09/05 01:01:48;;;;;;;7.05;4.00;;;;;;;;;;5075167;28;20200;-61
2023/09/05 01:04:16;;;;;;;7.63;4.03;;;;;;;;;;5076573;28;20249;-61
2023/09/05 01:07:03;;;;;;;10.65;4.63;;;;;;;;;;5074936;28;20655;-61
2023/09/05 01:09:45;;;;;;;6.70;4.03;;;;;;;;;;5075246;28;20550;-61
2023/09/05 01:12:12;;;;;;;6.95;3.97;;;;;;;;;;5076000;28;20257;-61
2023/09/05 01:14:39;;;;;;;6.30;3.70;;;;;;;;;;5058186;28;20625;-60
2023/09/05 01:17:06;;;;;;;6.70;3.78;;;;;;;;;;5076194;28;20234;-61
2023/09/05 01:19:40;;;;;;;5.07;3.53;;;;;;;;;;5076157;28;20300;-61
2023/09/05 01:22:29;;;;;;;5.85;3.40;;;;;;;;;;5076326;28;20210;-60
2023/09/05 01:24:56;;;;;;;7.13;3.83;;;;;;;;;;5076297;28;20179;-60
2023/09/05 01:27:25;;;;;;;6.05;4.45;;;;;;;;;;5075887;28;20203;-61
2023/09/05 01:29:53;;;;;;;6.40;4.18;;;;;;;;;;5075253;28;20253;-61
2023/09/05 01:32:20;;;;;;;6.28;4.10;;;;;;;;;;5074566;28;20203;-61
2023/09/05 01:34:48;;;;;;;8.38;4.72;;;;;;;;;;5074849;28;20306;-60
2023/09/05 01:37:15;;;;;;;6.70;4.53;;;;;;;;;;5074759;28;20227;-61
2023/09/05 01:39:43;;;;;;;7.03;4.70;;;;;;;;;;5075890;28;20231;-61
2023/09/05 01:42:10;;;;;;;5.70;4.75;;;;;;;;;;5075951;28;20309;-61
2023/09/05 01:44:38;;;;;;;11.90;4.95;;;;;;;;;;5074464;28;20208;-60
2023/09/05 01:47:06;;;;;;;8.20;5.20;;;;;;;;;;5075716;28;20203;-60
2023/09/05 01:49:33;;;;;;;10.20;5.72;;;;;;;;;;5075691;28;20313;-61
2023/09/05 01:52:01;;;;;;;9.55;6.03;;;;;;;;;;5074206;28;20204;-60
2023/09/05 01:54:28;;;;;;;7.97;5.47;;;;;;;;;;5075362;28;20278;-61
2023/09/05 01:56:55;;;;;;;8.25;5.00;;;;;;;;;;5075761;28;20207;-61
2023/09/05 01:59:22;;;;;;;7.75;4.40;;;;;;;;;;5073926;28;20211;-60
2023/09/05 02:01:49;;;;;;;8.15;4.85;;;;;;;;;;5074431;28;20269;-61
2023/09/05 02:04:16;;;;;;;7.00;3.80;;;;;;;;;;5074298;28;20203;-61
2023/09/05 02:06:43;;;;;;;7.18;3.80;;;;;;;;;;5073924;28;20257;-60
2023/09/05 02:09:10;;;;;;;5.65;3.90;;;;;;;;;;5073918;28;20663;-61
2023/09/05 02:11:38;;;;;;;6.15;4.30;;;;;;;;;;5074940;28;20203;-61
2023/09/05 02:14:05;;;;;;;6.40;4.18;;;;;;;;;;5075101;28;20231;-61
2023/09/05 02:16:33;;;;;;;6.97;4.13;;;;;;;;;;5074017;28;20214;-61
2023/09/05 02:19:00;;;;;;;6.30;4.22;;;;;;;;;;5073732;28;20230;-61
2023/09/05 02:21:27;;;;;;;6.05;4.55;;;;;;;;;;5075046;28;20227;-61
2023/09/05 02:23:54;;;;;;;7.20;4.35;;;;;;;;;;5073834;28;20235;-61
2023/09/05 02:26:22;;;;;;;8.15;4.95;;;;;;;;;;5073415;28;20207;-61
2023/09/05 02:28:49;;;;;;;5.43;3.58;;;;;;;;;;5074910;28;20203;-61
2023/09/05 02:31:16;;;;;;;8.18;4.22;;;;;;;;;;5074798;28;20207;-61
2023/09/05 02:33:44;;;;;;;6.32;3.90;;;;;;;;;;5073452;28;20207;-61
2023/09/05 02:36:18;;;;;;;4.78;3.97;;;;;;;;;;5074683;28;20245;-61
2023/09/05 02:38:46;;;;;;;9.80;4.10;;;;;;;;;;5073452;28;20569;-61
2023/09/05 02:41:14;;;;;;;6.40;3.80;;;;;;;;;;5074034;28;20227;-61
2023/09/05 02:43:41;;;;;;;5.10;3.55;;;;;;;;;;5074481;28;20219;-60
2023/09/05 02:46:09;;;;;;;7.00;3.72;;;;;;;;;;5074534;28;20207;-61
2023/09/05 02:48:40;;;;;;;5.35;3.95;;;;;;;;;;5074360;28;20290;-61
2023/09/05 02:51:10;;;;;;;7.15;4.05;;;;;;;;;;5074371;28;20210;-61
2023/09/05 02:53:38;;;;;;;6.82;4.90;;;;;;;;;;5073027;28;20204;-61
2023/09/05 02:56:05;;;;;;;6.22;3.95;;;;;;;;;;5074162;28;20608;-61
2023/09/05 02:58:33;;;;;;;6.90;3.75;;;;;;;;;;5074382;28;20208;-61
2023/09/05 03:01:05;;;;;;;6.97;4.38;;;;;;;;;;5073986;28;20223;-61
2023/09/05 03:03:33;;;;;;;7.53;3.90;;;;;;;;;;5072337;28;20250;-61
2023/09/05 03:06:11;;;;;;;8.25;3.85;;;;;;;;;;5072832;28;20260;-61
2023/09/05 03:08:38;;;;;;;8.70;3.83;;;;;;;;;;5072796;28;20199;-63
2023/09/05 03:11:07;;;;;;;6.30;4.00;;;;;;;;;;5072850;28;20214;-61
2023/09/05 03:13:34;;;;;;;4.55;3.33;;;;;;;;;;5072454;28;20227;-63
2023/09/05 03:16:03;;;;;;;9.85;3.92;;;;;;;;;;5072957;28;20175;-61
2023/09/05 03:18:30;;;;;;;6.05;3.90;;;;;;;;;;5072347;28;20206;-60
2023/09/05 03:20:58;;;;;;;10.02;4.22;;;;;;;;;;5072228;28;20231;-61
2023/09/05 03:23:25;;;;;;;11.23;5.20;;;;;;;;;;5072399;28;20261;-61
2023/09/05 03:25:53;;;;;;;7.78;4.95;;;;;;;;;;5073405;28;20206;-61
2023/09/05 03:28:20;;;;;;;7.95;5.10;;;;;;;;;;5072099;28;20235;-61
2023/09/05 03:30:48;;;;;;;5.57;3.38;;;;;;;;;;5072064;28;20215;-61
2023/09/05 03:33:15;;;;;;;7.65;4.78;;;;;;;;;;5073220;28;20671;-61
2023/09/05 03:35:44;;;;;;;9.57;5.45;;;;;;;;;;5072299;28;20207;-61
2023/09/05 03:38:11;;;;;;;10.15;5.60;;;;;;;;;;5072013;28;20656;-61
2023/09/05 03:40:38;;;;;;;9.50;5.47;;;;;;;;;;5073267;28;20231;-61
2023/09/05 03:43:06;;;;;;;8.10;4.28;;;;;;;;;;5073203;28;20716;-61
2023/09/05 03:45:33;;;;;;;7.70;4.22;;;;;;;;;;5073176;28;20230;-61
2023/09/05 03:48:00;;;;;;;5.85;3.95;;;;;;;;;;5072205;28;20199;-61
2023/09/05 03:50:29;;;;;;;6.75;4.28;;;;;;;;;;5072233;28;20214;-62
2023/09/05 03:52:57;;;;;;;6.65;4.30;;;;;;;;;;5071773;28;20635;-62
2023/09/05 03:55:24;;;;;;;6.82;4.78;;;;;;;;;;5071845;28;20211;-62
2023/09/05 03:57:52;;;;;;;7.20;4.70;;;;;;;;;;5071935;28;20199;-62
2023/09/05 04:00:19;;;;;;;8.15;4.75;;;;;;;;;;5063791;28;20224;-61
2023/09/05 04:02:46;;;;;;;8.00;5.30;;;;;;;;;;5065171;28;20225;-62
2023/09/05 04:05:17;;;;;;;5.53;4.25;;;;;;;;;;5071224;28;20250;-62
2023/09/05 04:07:44;;;;;;;7.32;4.65;;;;;;;;;;5072650;28;20242;-61
2023/09/05 04:10:12;;;;;;;9.10;5.22;;;;;;;;;;5072161;28;20230;-61
2023/09/05 04:12:40;;;;;;;9.70;4.68;;;;;;;;;;5070985;28;20219;-62
2023/09/05 04:15:09;;;;;;;5.20;3.50;;;;;;;;;;5071713;28;20235;-61
2023/09/05 04:17:37;;;;;;;5.50;3.38;;;;;;;;;;5071211;28;20227;-62
2023/09/05 04:20:07;;;;;;;4.57;3.40;;;;;;;;;;5071003;28;20219;-62
2023/09/05 04:22:35;;;;;;;7.35;3.83;;;;;;;;;;5072629;28;20254;-62
2023/09/05 04:25:03;;;;;;;7.78;4.63;;;;;;;;;;5070915;28;20598;-62
2023/09/05 04:27:30;;;;;;;6.85;4.78;;;;;;;;;;5070928;28;20220;-62
2023/09/05 04:29:57;;;;;;;7.80;4.82;;;;;;;;;;5072159;28;20226;-61
2023/09/05 04:32:28;;;;;;;8.43;5.07;;;;;;;;;;5071068;28;20703;-62
2023/09/05 04:34:58;;;;;;;12.05;5.28;;;;;;;;;;5071221;28;20228;-62
2023/09/05 04:37:26;;;;;;;10.15;4.85;;;;;;;;;;5071035;28;20242;-63
2023/09/05 04:40:00;;;;;;;11.02;5.93;;;;;;;;;;5070548;28;20230;-62
2023/09/05 04:42:28;;;;;;;9.80;4.97;;;;;;;;;;5071514;28;20229;-63
2023/09/05 04:44:55;;;;;;;6.20;4.57;;;;;;;;;;5071468;28;20219;-61
2023/09/05 04:47:23;;;;;;;7.72;5.00;;;;;;;;;;5072018;28;20273;-61
2023/09/05 04:49:52;;;;;;;7.55;4.88;;;;;;;;;;5071811;28;20224;-62
2023/09/05 04:52:20;;;;;;;8.30;4.63;;;;;;;;;;5070689;28;20230;-62
2023/09/05 04:54:48;;;;;;;6.53;5.05;;;;;;;;;;5070859;28;20227;-60
2023/09/05 04:57:16;;;;;;;10.73;5.50;;;;;;;;;;5071409;28;20224;-62
2023/09/05 04:59:45;;;;;;;7.20;4.75;;;;;;;;;;5071368;28;20656;-62
2023/09/05 05:02:12;;;;;;;6.40;4.72;;;;;;;;;;5071812;28;20293;-62
2023/09/05 05:04:40;;;;;;;7.88;5.43;;;;;;;;;;5072233;28;20223;-62
2023/09/05 05:07:08;;;;;;;6.55;5.32;;;;;;;;;;5075640;28;20306;-62
2023/09/05 05:09:35;;;;;;;10.38;5.63;;;;;;;;;;5074533;28;20715;-62
2023/09/05 05:12:02;;;;;;;8.27;5.53;;;;;;;;;;5075594;28;20321;-62
2023/09/05 05:14:30;;;;;;;11.75;5.57;;;;;;;;;;5075152;28;20707;-61
2023/09/05 05:16:57;;;;;;;6.35;5.22;;;;;;;;;;5075322;28;20223;-62
2023/09/05 05:19:24;;;;;;;8.40;5.50;;;;;;;;;;5075073;28;20246;-62
2023/09/05 05:21:52;;;;;;;12.52;6.13;;;;;;;;;;5074304;28;20234;-63
2023/09/05 05:24:19;;;;;;;7.22;5.63;;;;;;;;;;5075246;28;20219;-62
2023/09/05 05:26:46;;;;;;;9.13;5.75;;;;;;;;;;5074662;28;20289;-63
2023/09/05 05:29:14;;;;;;;9.43;6.20;;;;;;;;;;5075774;28;20678;-63
2023/09/05 05:31:40;;;;;;;12.05;5.70;;;;;;;;;;5075605;28;20564;-62
2023/09/05 05:34:08;;;;;;;13.77;6.25;;;;;;;;;;5076087;28;20254;-63
2023/09/05 05:36:35;;;;;;;7.15;5.30;;;;;;;;;;5076074;28;20265;-64
2023/09/05 05:39:03;;;;;;;11.30;6.28;;;;;;;;;;5076018;28;20226;-64
2023/09/05 05:41:32;;;;;;;10.85;6.15;;;;;;;;;;5075866;28;20219;-63
2023/09/05 05:43:59;;;;;;;9.02;5.57;;;;;;;;;;5075742;28;20203;-64
2023/09/05 05:46:26;;;;;;;11.23;6.20;;;;;;;;;;5075515;28;20199;-64
2023/09/05 05:48:57;;;;;;;9.93;6.57;;;;;;;;;;5075814;28;20203;-64
2023/09/05 05:51:27;;;;;;;13.63;6.60;;;;;;;;;;5075762;28;20585;-63
2023/09/05 05:53:55;;;;;;;9.73;6.25;;;;;;;;;;5074467;28;20199;-64
2023/09/05 05:56:22;;;;;;;8.98;6.13;;;;;;;;;;5075397;28;20282;-64
2023/09/05 05:58:49;;;;;;;12.50;6.13;;;;;;;;;;5075319;28;20360;-65
2023/09/05 06:01:18;;;;;;;14.93;6.07;;;;;;;;;;5075549;28;20249;-64
2023/09/05 06:03:46;;;;;;;9.02;5.75;;;;;;;;;;5075184;28;20211;-64
2023/09/05 06:06:14;;;;;;;12.32;6.45;;;;;;;;;;5075411;28;20713;-64
2023/09/05 06:08:41;;;;;;;11.50;5.95;;;;;;;;;;5075221;28;20207;-64
2023/09/05 06:11:08;;;;;;;9.82;6.65;;;;;;;;;;5074047;28;20230;-64
2023/09/05 06:13:35;;;;;;;9.43;5.93;;;;;;;;;;5074914;28;20301;-65
2023/09/05 06:16:02;;;;;;;8.85;6.47;;;;;;;;;;5075539;28;20271;-64
2023/09/05 06:18:30;;;;;;;9.10;6.10;;;;;;;;;;5075168;28;20261;-64
2023/09/05 06:20:57;;;;;;;13.90;6.25;;;;;;;;;;5074882;28;20622;-63
2023/09/05 06:23:24;;;;;;;10.07;6.28;;;;;;;;;;5074987;28;20229;-64
2023/09/05 06:25:51;;;;;;;11.02;6.13;;;;;;;;;;5074910;28;20204;-64
2023/09/05 06:28:19;;;;;;;11.85;6.28;;;;;;;;;;5074694;28;20200;-63
2023/09/05 06:30:46;;;;;;;10.85;6.57;;;;;;;;;;5075054;28;20231;-65
2023/09/05 06:33:14;;;;;;;10.20;6.03;;;;;;;;;;5074952;28;20589;-64
2023/09/05 06:35:41;;;;;;;10.43;5.75;;;;;;;;;;5074913;28;20281;-64
2023/09/05 06:38:10;;;;;;;8.73;5.65;;;;;;;;;;5074764;28;20203;-64
2023/09/05 06:40:38;;;;;;;10.00;5.88;;;;;;;;;;5074544;28;20348;-64
2023/09/05 06:43:05;;;;;;;10.20;5.35;;;;;;;;;;5074649;28;20203;-64
2023/09/05 06:45:32;;;;;;;13.55;6.15;;;;;;;;;;5073238;28;20286;-63
2023/09/05 06:47:59;;;;;;;10.20;5.68;;;;;;;;;;5074631;28;20203;-64
2023/09/05 06:50:26;;;;;;;8.80;5.60;;;;;;;;;;5074514;28;20207;-65
2023/09/05 06:52:54;;;;;;;8.30;4.75;;;;;;;;;;5074527;28;20206;-63
2023/09/05 06:55:21;;;;;;;9.27;5.03;;;;;;;;;;5074250;28;20227;-64
2023/09/05 06:57:48;;;;;;;7.03;4.57;;;;;;;;;;5074164;28;20199;-63
2023/09/05 07:00:15;;;;;;;11.57;4.90;;;;;;;;;;5074114;28;20726;-64
2023/09/05 07:02:42;;;;;;;6.55;4.50;;;;;;;;;;5073959;28;20733;-64
2023/09/05 07:05:09;;;;;;;11.13;4.65;;;;;;;;;;5074184;28;20562;-63
2023/09/05 07:07:37;;;;;;;6.28;4.05;;;;;;;;;;5074027;28;20554;-64
2023/09/05 07:10:05;;;;;;;7.10;3.80;;;;;;;;;;5072310;28;20238;-62
2023/09/05 07:12:32;;;;;;;7.57;3.33;;;;;;;;;;5074144;28;20215;-63
2023/09/05 07:15:00;;;;;;;4.88;2.50;;;;;;;;;;5073869;28;20253;-63
2023/09/05 07:17:28;;;;;;;3.38;2.20;;;;;;;;;;5073856;28;20286;-63
2023/09/05 07:19:55;;;;;;;7.03;2.60;;;;;;;;;;5073821;28;20739;-63
2023/09/05 07:22:22;;;;;;;5.18;2.53;;;;;;;;;;5073656;28;20223;-64
2023/09/05 07:24:49;;;;;;;4.78;2.88;;;;;;;;;;5074074;28;20217;-63
2023/09/05 07:27:17;;;;;;;6.32;3.35;;;;;;;;;;5073757;28;20248;-63
2023/09/05 07:29:44;;;;;;;10.63;3.42;;;;;;;;;;5073649;28;20436;-63
2023/09/05 07:32:11;;;;;;;7.00;2.90;;;;;;;;;;5073704;28;20687;-63
2023/09/05 07:34:38;;;;;;;6.38;3.38;;;;;;;;;;5073812;28;20286;-63
2023/09/05 07:37:06;;;;;;;6.10;2.90;;;;;;;;;;5073855;28;20199;-63
2023/09/05 07:39:33;;;;;;;5.88;3.40;;;;;;;;;;5073781;28;20203;-63
2023/09/05 07:42:01;;;;;;;6.85;3.15;;;;;;;;;;5072461;28;20277;-63
2023/09/05 07:44:28;;;;;;;4.70;2.90;;;;;;;;;;5073447;28;20199;-64
2023/09/05 07:46:55;;;;;;;5.32;2.78;;;;;;;;;;5073756;28;20211;-63
2023/09/05 07:49:22;;;;;;;10.65;3.30;;;;;;;;;;5073462;28;20199;-63
2023/09/05 07:51:50;;;;;;;5.13;3.05;;;;;;;;;;5073418;28;20207;-64
2023/09/05 07:54:20;;;;;;;4.25;2.60;;;;;;;;;;5073538;28;20207;-64
2023/09/05 07:56:48;;;;;;;6.18;2.75;;;;;;;;;;5073621;28;20253;-63
2023/09/05 07:59:15;;;;;;;3.70;2.13;;;;;;;;;;5073490;28;20619;-63
2023/09/05 08:01:42;;;;;;;5.78;2.83;;;;;;;;;;5073310;28;20302;-64
2023/09/05 08:04:09;;;;;;;3.53;2.10;;;;;;;;;;5073466;28;20203;-63
2023/09/05 08:06:36;;;;;;;3.47;2.35;;;;;;;;;;5073443;28;20199;-63
2023/09/05 08:09:03;;;;;;;6.93;2.50;;;;;;;;;;5073384;28;20611;-63
2023/09/05 08:11:31;;;;;;;4.60;2.90;;;;;;;;;;5073362;28;20203;-63
2023/09/05 08:13:58;;;;;;;9.23;2.75;;;;;;;;;;5072924;28;20745;-64
2023/09/05 08:16:25;;;;;;;3.22;2.45;;;;;;;;;;5073166;28;20206;-64
2023/09/05 08:18:52;;;;;;;4.15;2.30;;;;;;;;;;5073468;28;20199;-64
2023/09/05 08:21:19;;;;;;;5.00;2.65;;;;;;;;;;5073091;28;20249;-63
2023/09/05 08:23:49;;;;;;;4.00;2.60;;;;;;;;;;5073283;28;20294;-64
2023/09/05 08:26:17;;;;;;;3.55;2.30;;;;;;;;;;5073355;28;20199;-63
2023/09/05 08:28:45;;;;;;;8.52;2.85;;;;;;;;;;5073204;28;20282;-63
2023/09/05 08:31:14;;;;;;;6.03;2.55;;;;;;;;;;5073313;28;20196;-64
2023/09/05 08:33:44;;;;;;;6.90;2.63;;;;;;;;;;5072925;28;20203;-64
2023/09/05 08:36:12;;;;;;;3.33;1.92;;;;;;;;;;5073305;28;20257;-63
2023/09/05 08:38:39;;;;;;;3.65;2.00;;;;;;;;;;5073047;28;20199;-64
2023/09/05 08:41:07;;;;;;;3.58;2.00;;;;;;;;;;5075431;28;20207;-63
2023/09/05 08:43:35;;;;;;;4.53;2.03;;;;;;;;;;5076649;28;20227;-63
2023/09/05 08:46:03;;;;;;;3.90;2.10;;;;;;;;;;5076713;28;20208;-64
2023/09/05 08:48:31;;;;;;;6.15;2.28;;;;;;;;;;5076904;28;20602;-64
2023/09/05 08:51:20;;;;;;;5.35;1.80;;;;;;;;;;5076745;28;20667;-64
2023/09/05 08:53:56;;;;;;;5.88;2.40;;;;;;;;;;5076553;28;20229;-63
2023/09/05 08:56:25;;;;;;;4.88;2.22;;;;;;;;;;5075791;28;20652;-64
2023/09/05 08:58:52;;;;;;;5.50;1.88;;;;;;;;;;5076461;28;20741;-64
2023/09/05 09:01:20;;;;;;;3.67;2.08;;;;;;;;;;5075471;28;20273;-64
2023/09/05 09:03:50;;;;;;;4.40;2.00;;;;;;;;;;5076335;28;20669;-65
2023/09/05 09:06:23;;;;;;;4.38;2.30;;;;;;;;;;5076259;28;20765;-64
2023/09/05 09:08:51;;;;;;;6.40;2.13;;;;;;;;;;5076232;28;20227;-64
2023/09/05 09:11:20;;;;;;;3.60;2.20;;;;;;;;;;5076337;28;20682;-64
2023/09/05 09:13:50;;;;;;;2.95;1.75;;;;;;;;;;5076338;28;20232;-63
2023/09/05 09:16:18;;;;;;;3.53;1.73;;;;;;;;;;5076491;28;20225;-65
2023/09/05 09:18:49;;;;;;;5.70;1.80;;;;;;;;;;5076064;28;20207;-63
2023/09/05 09:21:17;;;;;;;5.82;2.28;;;;;;;;;;5075987;28;20564;-66
2023/09/05 09:23:49;;;;;;;6.28;1.92;;;;;;;;;;5076435;28;20191;-65
2023/09/05 09:26:16;;;;;;;4.13;2.15;;;;;;;;;;5076357;28;20207;-64
2023/09/05 09:28:44;;;;;;;3.80;2.50;;;;;;;;;;5075938;28;20199;-64
2023/09/05 09:31:12;;;;;;;3.67;2.00;;;;;;;;;;5075032;28;20203;-64
2023/09/05 09:33:41;;;;;;;4.07;1.98;;;;;;;;;;5075807;28;20203;-64
2023/09/05 09:36:10;;;;;;;4.32;1.75;;;;;;;;;;5075791;28;20245;-64
2023/09/05 09:38:38;;;;;;;4.70;1.75;;;;;;;;;;5074811;28;20203;-64
2023/09/05 09:41:06;;;;;;;3.28;1.75;;;;;;;;;;5076085;28;20203;-64
2023/09/05 09:43:35;;;;;;;5.05;2.10;;;;;;;;;;5075625;28;20223;-64
2023/09/05 09:46:04;;;;;;;3.65;1.90;;;;;;;;;;5075632;28;20215;-64
2023/09/05 09:48:34;;;;;;;4.47;2.05;;;;;;;;;;5076007;28;20207;-64
2023/09/05 09:51:04;;;;;;;4.80;2.17;;;;;;;;;;5075392;28;20661;-65
2023/09/05 09:53:36;;;;;;;5.18;1.83;;;;;;;;;;5075879;28;20191;-64
2023/09/05 09:56:10;;;;;;;3.17;2.08;;;;;;;;;;5075469;28;20769;-64
2023/09/05 09:58:42;;;;;;;3.38;2.03;;;;;;;;;;5075346;28;20644;-64
2023/09/05 10:01:11;;;;;;;2.33;1.58;;;;;;;;;;5075809;28;20635;-64
2023/09/05 10:03:40;;;;;;;2.92;1.83;;;;;;;;;;5075411;28;20276;-64
2023/09/05 10:06:09;;;;;;;3.50;1.90;;;;;;;;;;5075480;28;20203;-64
2023/09/05 10:08:37;;;;;;;3.90;1.90;;;;;;;;;;5075257;28;20206;-64
2023/09/05 10:11:13;;;;;;;6.78;1.67;;;;;;;;;;5074052;28;20221;-64
2023/09/05 10:13:41;;;;;;;3.28;1.73;;;;;;;;;;5075195;28;20254;-64
2023/09/05 10:16:08;;;;;;;2.78;1.70;;;;;;;;;;5074153;28;20218;-65
2023/09/05 10:18:39;;;;;;;4.22;1.83;;;;;;;;;;5073867;28;20226;-64
2023/09/05 10:21:07;;;;;;;3.55;1.83;;;;;;;;;;5075069;28;20215;-65
2023/09/05 10:23:36;;;;;;;3.65;2.00;;;;;;;;;;5075015;28;20227;-64
2023/09/05 10:26:03;;;;;;;5.70;1.70;;;;;;;;;;5074812;28;20203;-64
2023/09/05 10:28:31;;;;;;;3.55;1.67;;;;;;;;;;5073849;28;20207;-64
2023/09/05 10:31:06;;;;;;;4.03;1.70;;;;;;;;;;5074945;28;20227;-64
2023/09/05 10:33:36;;;;;;;2.10;1.52;;;;;;;;;;5073664;28;20218;-64
2023/09/05 10:36:04;;;;;;;4.00;1.88;;;;;;;;;;5074678;28;20207;-64
2023/09/05 10:38:36;;;;;;;3.35;1.88;;;;;;;;;;5074915;28;20272;-64
2023/09/05 10:41:03;;;;;;;2.33;1.75;;;;;;;;;;5074593;28;20647;-64
2023/09/05 10:43:31;;;;;;;2.28;1.60;;;;;;;;;;5074589;28;20227;-64
2023/09/05 10:45:59;;;;;;;3.83;2.00;;;;;;;;;;5074390;28;20206;-64
2023/09/05 10:48:40;;;;;;;2.38;1.70;;;;;;;;;;5074347;28;20203;-64
2023/09/05 10:51:10;;;;;;;2.13;1.40;;;;;;;;;;5074442;28;20213;-64
2023/09/05 10:53:39;;;;;;;3.30;1.80;;;;;;;;;;5074536;28;20211;-64
2023/09/05 10:56:43;;;;;;;4.10;1.75;;;;;;;;;;5074507;28;20290;-65
2023/09/05 10:59:26;;;;;;;2.42;1.73;;;;;;;;;;5074525;28;20195;-65
2023/09/05 11:02:06;;;;;;;2.33;1.50;;;;;;;;;;5074106;28;20203;-64
2023/09/05 11:04:34;;;;;;;4.22;1.63;;;;;;;;;;5074119;28;20199;-65
2023/09/05 11:07:04;;;;;;;2.22;1.80;;;;;;;;;;5073998;28;20199;-64
2023/09/05 11:09:49;;;;;;;3.17;1.98;;;;;;;;;;5074483;28;20246;-65
2023/09/05 11:12:18;;;;;;;4.57;1.90;;;;;;;;;;5074200;28;20257;-65
2023/09/05 11:14:45;;;;;;;4.55;1.90;;;;;;;;;;5073957;28;20239;-66
2023/09/05 11:17:14;;;;;;;4.47;1.90;;;;;;;;;;5073991;28;20253;-67
2023/09/05 11:19:51;;;;;;;3.30;2.00;;;;;;;;;;5073830;28;20725;-65
2023/09/05 11:22:21;;;;;;;4.38;1.48;;;;;;;;;;5073898;28;20214;-66
2023/09/05 11:24:51;;;;;;;3.85;1.90;;;;;;;;;;5074350;28;20336;-66
2023/09/05 11:27:26;;;;;;;3.75;1.58;;;;;;;;;;5073671;28;20245;-66
2023/09/05 11:29:55;;;;;;;3.30;2.08;;;;;;;;;;5073790;28;20203;-66
2023/09/05 11:32:31;;;;;;;2.75;1.70;;;;;;;;;;5073588;28;20231;-64
2023/09/05 11:35:00;;;;;;;4.13;1.95;;;;;;;;;;5073646;28;20655;-66
2023/09/05 11:37:30;;;;;;;3.00;1.83;;;;;;;;;;5073682;28;20207;-66
2023/09/05 11:40:09;;;;;;;3.10;1.52;;;;;;;;;;5073902;28;20191;-66
2023/09/05 11:42:36;;;;;;;3.95;1.55;;;;;;;;;;5073505;28;20219;-66
2023/09/05 11:45:15;;;;;;;2.08;1.42;;;;;;;;;;5073967;28;20199;-65
2023/09/05 11:47:42;;;;;;;3.90;1.85;;;;;;;;;;5073510;28;20199;-67
2023/09/05 11:50:10;;;;;;;3.25;2.00;;;;;;;;;;5073638;28;20207;-65
2023/09/05 11:52:40;;;;;;;3.15;1.77;;;;;;;;;;5073536;28;20211;-66
2023/09/05 11:55:09;;;;;;;3.65;1.92;;;;;;;;;;5072361;28;20226;-64
2023/09/05 11:57:36;;;;;;;5.80;1.73;;;;;;;;;;5072431;28;20215;-66
2023/09/05 12:00:16;;;;;;;4.30;2.13;;;;;;;;;;5072128;28;20199;-66
2023/09/05 12:02:44;;;;;;;7.00;1.75;;;;;;;;;;5072309;28;20218;-67
2023/09/05 12:05:12;;;;;;;2.88;1.90;;;;;;;;;;5073293;28;20203;-64
2023/09/05 12:07:39;;;;;;;5.28;1.83;;;;;;;;;;5073316;28;20219;-64
2023/09/05 12:10:09;;;;;;;3.72;2.00;;;;;;;;;;5073439;28;20644;-64
2023/09/05 12:12:36;;;;;;;7.70;1.95;;;;;;;;;;5073355;28;20223;-64
2023/09/05 12:15:07;;;;;;;4.32;2.22;;;;;;;;;;5076149;28;20227;-65
2023/09/05 12:17:34;;;;;;;3.88;1.70;;;;;;;;;;5077361;28;20667;-64
2023/09/05 12:20:07;;;;;;;2.83;1.70;;;;;;;;;;5077387;28;20343;-64
2023/09/05 12:22:34;;;;;;;3.70;1.77;;;;;;;;;;5077363;28;20241;-65
2023/09/05 12:25:14;;;;;;;3.83;2.08;;;;;;;;;;5077354;28;20199;-65
2023/09/05 12:27:47;;;;;;;6.80;1.73;;;;;;;;;;5077121;28;20264;-66
2023/09/05 12:30:31;;;;;;;4.57;1.48;;;;;;;;;;5065747;28;20230;-65
2023/09/05 12:33:00;;;;;;;2.78;1.70;;;;;;;;;;5056638;28;20231;-66
2023/09/05 12:35:29;;;;;;;2.35;1.50;;;;;;;;;;5059002;28;20584;-64
2023/09/05 12:37:57;;;;;;;3.30;1.70;;;;;;;;;;5071231;28;20259;-64
2023/09/05 12:40:26;;;;;;;3.53;2.05;;;;;;;;;;5075656;28;20277;-65
2023/09/05 12:42:54;;;;;;;2.28;1.73;;;;;;;;;;5072926;28;20317;-64
2023/09/05 12:45:21;;;;;;;3.92;1.83;;;;;;;;;;5075142;28;20597;-65
2023/09/05 12:47:51;;;;;;;2.28;1.60;;;;;;;;;;5074800;28;20215;-66
2023/09/05 12:50:30;;;;;;;2.10;1.58;;;;;;;;;;5076008;28;20223;-65
2023/09/05 12:53:01;;;;;;;3.35;1.75;;;;;;;;;;5076320;28;20586;-65
2023/09/05 12:55:33;;;;;;;4.65;1.85;;;;;;;;;;5075701;28;20262;-63
2023/09/05 12:58:03;;;;;;;4.85;1.80;;;;;;;;;;5076022;28;20219;-63
2023/09/05 13:00:32;;;;;;;4.97;1.85;;;;;;;;;;5075225;28;20230;-64
2023/09/05 13:03:03;;;;;;;3.78;1.95;;;;;;;;;;5075934;28;20310;-65
2023/09/05 13:05:31;;;;;;;4.28;1.73;;;;;;;;;;5075333;28;20289;-64
2023/09/05 13:07:59;;;;;;;3.50;1.80;;;;;;;;;;5075610;28;20229;-65
2023/09/05 13:10:27;;;;;;;2.70;1.77;;;;;;;;;;5075430;28;20227;-65
2023/09/05 13:12:55;;;;;;;2.88;1.58;;;;;;;;;;5075547;28;20594;-64
2023/09/05 13:15:27;;;;;;;2.25;1.67;;;;;;;;;;5075299;28;20235;-64
2023/09/05 13:17:54;;;;;;;3.20;1.88;;;;;;;;;;5075254;28;20332;-64
2023/09/05 13:20:21;;;;;;;4.10;1.73;;;;;;;;;;5075554;28;20226;-66
2023/09/05 13:22:48;;;;;;;3.60;1.67;;;;;;;;;;5075476;28;20238;-62
2023/09/05 13:25:21;;;;;;;6.57;1.60;;;;;;;;;;5075358;28;20253;-65
2023/09/05 13:27:49;;;;;;;5.35;1.92;;;;;;;;;;5072069;28;20330;-65
2023/09/05 13:30:17;;;;;;;2.20;1.50;;;;;;;;;;5074650;28;20321;-65
2023/09/05 13:32:44;;;;;;;3.60;1.90;;;;;;;;;;5073029;28;20458;-65
2023/09/05 13:35:12;;;;;;;2.50;1.70;;;;;;;;;;5074853;28;20235;-65
2023/09/05 13:37:40;;;;;;;3.85;2.00;;;;;;;;;;5073718;28;20448;-65
2023/09/05 13:40:08;;;;;;;3.65;1.80;;;;;;;;;;5070152;28;20242;-66
2023/09/05 13:42:35;;;;;;;4.85;1.90;;;;;;;;;;5067611;28;20245;-63
2023/09/05 13:45:03;;;;;;;4.32;1.73;;;;;;;;;;5072899;28;20223;-64
2023/09/05 13:47:31;;;;;;;2.78;1.67;;;;;;;;;;5067221;28;20227;-65
2023/09/05 13:49:58;;;;;;;4.75;2.00;;;;;;;;;;5054545;28;20665;-67
2023/09/05 13:52:25;;;;;;;4.68;1.90;;;;;;;;;;5067422;28;20707;-64
2023/09/05 13:54:52;;;;;;;3.90;1.98;;;;;;;;;;5075137;28;20592;-66
2023/09/05 13:57:19;;;;;;;3.53;2.00;;;;;;;;;;5074980;28;20224;-66
2023/09/05 13:59:47;;;;;;;3.30;2.05;;;;;;;;;;5074272;28;20269;-65
2023/09/05 14:02:14;;;;;;;2.30;1.48;;;;;;;;;;5074642;28;20227;-65
2023/09/05 14:04:42;;;;;;;4.40;2.17;;;;;;;;;;5074252;28;20235;-65
2023/09/05 14:07:09;;;;;;;4.18;1.90;;;;;;;;;;5074668;28;20230;-66
2023/09/05 14:09:36;;;;;;;3.17;1.67;;;;;;;;;;5073201;28;20219;-63
2023/09/05 14:12:04;;;;;;;3.53;1.88;;;;;;;;;;5073175;28;20246;-65
2023/09/05 14:14:31;;;;;;;4.20;1.70;;;;;;;;;;5073600;28;20601;-65
2023/09/05 14:16:58;;;;;;;4.50;1.70;;;;;;;;;;5074170;28;20231;-63
2023/09/05 14:19:26;;;;;;;4.82;1.33;;;;;;;;;;5074296;28;20219;-67
2023/09/05 14:21:53;;;;;;;2.47;1.85;;;;;;;;;;5074170;28;20657;-65
2023/09/05 14:24:20;;;;;;;2.45;1.65;;;;;;;;;;5074477;28;20235;-64
2023/09/05 14:26:49;;;;;;;6.55;1.67;;;;;;;;;;5074258;28;20223;-64
2023/09/05 14:29:16;;;;;;;3.10;1.50;;;;;;;;;;5073648;28;20223;-64
2023/09/05 14:31:43;;;;;;;3.67;2.00;;;;;;;;;;5070012;28;20218;-63
2023/09/05 14:34:11;;;;;;;6.28;1.88;;;;;;;;;;5070138;28;20199;-63
2023/09/05 14:36:39;;;;;;;2.85;1.70;;;;;;;;;;5056979;28;20246;-62
2023/09/05 14:39:07;;;;;;;3.20;1.70;;;;;;;;;;5055684;28;20564;-62
2023/09/05 14:41:34;;;;;;;4.78;1.88;;;;;;;;;;5054488;28;20622;-63
2023/09/05 14:44:05;;;;;;;4.10;1.40;;;;;;;;;;5060254;28;20234;-63
2023/09/05 14:46:33;;;;;;;3.30;1.50;;;;;;;;;;5058890;28;20210;-64
2023/09/05 14:49:01;;;;;;;4.35;1.77;;;;;;;;;;5056576;28;20243;-63
2023/09/05 14:51:29;;;;;;;2.08;1.55;;;;;;;;;;5054568;28;20219;-63